sensor_id;sensor_type;location;lat;lon;timestamp;pressure;altitude;pressure_sealevel;temperature;humidity
56912;BME280;42800;53.928;27.662;2022-09-06T00:00:40;99652.47;;;9.71;100.00
56912;BME280;42800;53.928;27.662;2022-09-06T00:03:06;99654.16;;;9.75;100.00
56912;BME280;42800;53.928;27.662;2022-09-06T00:05:34;99663.09;;;9.60;100.00
56912;BME280;42800;53.928;27.662;2022-09-06T00:08:03;99700.16;;;9.57;100.00
56912;BME280;42800;53.928;27.662;2022-09-06T00:10:31;99681.22;;;9.64;100.00
56912;BME280;42800;53.928;27.662;2022-09-06T00:13:00;99689.44;;;9.64;100.00
56912;BME280;42800;53.928;27.662;2022-09-06T00:15:27;99669.13;;;9.65;100.00
56912;BME280;42800;53.928;27.662;2022-09-06T00:17:53;99632.72;;;9.77;100.00
56912;BME280;42800;53.928;27.662;2022-09-06T00:20:19;99642.97;;;9.80;100.00
56912;BME280;42800;53.928;27.662;2022-09-06T00:22:46;99619.66;;;9.86;100.00
56912;BME280;42800;53.928;27.662;2022-09-06T00:25:12;99613.53;;;9.77;100.00
56912;BME280;42800;53.928;27.662;2022-09-06T00:27:39;99596.41;;;9.80;100.00
56912;BME280;42800;53.928;27.662;2022-09-06T00:30:06;99626.78;;;9.75;100.00
56912;BME280;42800;53.928;27.662;2022-09-06T00:32:32;99616.47;;;9.84;100.00
56912;BME280;42800;53.928;27.662;2022-09-06T00:34:59;99621.75;;;9.77;100.00
56912;BME280;42800;53.928;27.662;2022-09-06T00:37:25;99650.38;;;9.80;100.00
56912;BME280;42800;53.928;27.662;2022-09-06T00:39:51;99632.00;;;9.80;100.00
56912;BME280;42800;53.928;27.662;2022-09-06T00:42:18;99648.34;;;9.77;100.00
56912;BME280;42800;53.928;27.662;2022-09-06T00:44:44;99657.69;;;9.76;100.00
56912;BME280;42800;53.928;27.662;2022-09-06T00:47:11;99655.03;;;9.79;100.00
56912;BME280;42800;53.928;27.662;2022-09-06T00:49:40;99649.13;;;9.77;100.00
56912;BME280;42800;53.928;27.662;2022-09-06T00:52:11;99627.91;;;9.74;100.00
56912;BME280;42800;53.928;27.662;2022-09-06T00:54:38;99653.50;;;9.66;100.00
56912;BME280;42800;53.928;27.662;2022-09-06T00:57:05;99661.00;;;9.69;100.00
56912;BME280;42800;53.928;27.662;2022-09-06T00:59:34;99669.22;;;9.69;100.00
56912;BME280;42800;53.928;27.662;2022-09-06T01:02:01;99667.19;;;9.66;100.00
56912;BME280;42800;53.928;27.662;2022-09-06T01:04:30;99674.59;;;9.65;100.00
56912;BME280;42800;53.928;27.662;2022-09-06T01:07:04;99676.94;;;9.79;100.00
56912;BME280;42800;53.928;27.662;2022-09-06T01:09:43;99658.25;;;9.81;100.00
56912;BME280;42800;53.928;27.662;2022-09-06T01:12:26;99673.41;;;9.79;100.00
56912;BME280;42800;53.928;27.662;2022-09-06T01:15:07;99683.38;;;9.71;100.00
56912;BME280;42800;53.928;27.662;2022-09-06T01:17:44;99670.44;;;9.84;100.00
56912;BME280;42800;53.928;27.662;2022-09-06T01:20:30;99660.22;;;9.69;100.00
56912;BME280;42800;53.928;27.662;2022-09-06T01:26:04;99590.94;;;9.80;100.00
56912;BME280;42800;53.928;27.662;2022-09-06T01:28:38;99595.63;;;9.96;100.00
56912;BME280;42800;53.928;27.662;2022-09-06T01:31:18;99592.91;;;9.96;100.00
56912;BME280;42800;53.928;27.662;2022-09-06T01:33:56;99576.13;;;9.97;100.00
56912;BME280;42800;53.928;27.662;2022-09-06T01:36:26;99565.97;;;9.98;100.00
56912;BME280;42800;53.928;27.662;2022-09-06T01:38:57;99601.03;;;9.92;100.00
56912;BME280;42800;53.928;27.662;2022-09-06T01:41:23;99603.44;;;9.94;100.00
56912;BME280;42800;53.928;27.662;2022-09-06T01:43:52;99556.09;;;9.93;100.00
56912;BME280;42800;53.928;27.662;2022-09-06T01:46:31;99512.34;;;9.97;100.00
56912;BME280;42800;53.928;27.662;2022-09-06T01:49:15;99570.19;;;9.95;100.00
56912;BME280;42800;53.928;27.662;2022-09-06T01:51:56;99555.34;;;9.96;100.00
56912;BME280;42800;53.928;27.662;2022-09-06T01:54:32;99550.69;;;9.97;100.00
56912;BME280;42800;53.928;27.662;2022-09-06T01:57:13;99564.03;;;9.98;100.00
56912;BME280;42800;53.928;27.662;2022-09-06T02:00:05;99582.66;;;9.93;100.00
56912;BME280;42800;53.928;27.662;2022-09-06T02:02:41;99602.28;;;9.95;100.00
56912;BME280;42800;53.928;27.662;2022-09-06T02:05:20;99593.25;;;9.94;100.00
56912;BME280;42800;53.928;27.662;2022-09-06T02:07:51;99576.56;;;9.99;100.00
56912;BME280;42800;53.928;27.662;2022-09-06T02:10:23;99582.75;;;9.96;100.00
56912;BME280;42800;53.928;27.662;2022-09-06T02:12:52;99572.34;;;10.02;100.00
56912;BME280;42800;53.928;27.662;2022-09-06T02:15:23;99561.38;;;10.02;100.00
56912;BME280;42800;53.928;27.662;2022-09-06T02:17:55;99554.56;;;9.96;100.00
56912;BME280;42800;53.928;27.662;2022-09-06T02:20:24;99556.00;;;10.05;100.00
56912;BME280;42800;53.928;27.662;2022-09-06T02:22:54;99554.41;;;10.04;100.00
56912;BME280;42800;53.928;27.662;2022-09-06T02:25:24;99541.97;;;10.07;100.00
56912;BME280;42800;53.928;27.662;2022-09-06T02:27:52;99539.56;;;10.05;100.00
56912;BME280;42800;53.928;27.662;2022-09-06T02:30:20;99540.81;;;10.08;100.00
56912;BME280;42800;53.928;27.662;2022-09-06T02:32:49;99534.53;;;10.07;100.00
56912;BME280;42800;53.928;27.662;2022-09-06T02:35:21;99564.91;;;9.86;100.00
56912;BME280;42800;53.928;27.662;2022-09-06T02:37:47;99559.34;;;9.99;100.00
56912;BME280;42800;53.928;27.662;2022-09-06T02:40:16;99548.38;;;9.99;100.00
56912;BME280;42800;53.928;27.662;2022-09-06T02:42:43;99566.03;;;9.85;100.00
56912;BME280;42800;53.928;27.662;2022-09-06T02:45:09;99568.94;;;9.93;100.00
56912;BME280;42800;53.928;27.662;2022-09-06T02:47:36;99559.09;;;10.04;100.00
56912;BME280;42800;53.928;27.662;2022-09-06T02:50:03;99552.91;;;10.07;100.00
56912;BME280;42800;53.928;27.662;2022-09-06T02:52:29;99569.25;;;10.03;100.00
56912;BME280;42800;53.928;27.662;2022-09-06T02:54:55;99531.44;;;10.09;100.00
56912;BME280;42800;53.928;27.662;2022-09-06T02:57:22;99559.88;;;10.04;100.00
56912;BME280;42800;53.928;27.662;2022-09-06T02:59:48;99564.47;;;10.16;100.00
56912;BME280;42800;53.928;27.662;2022-09-06T03:02:15;99567.31;;;10.04;100.00
56912;BME280;42800;53.928;27.662;2022-09-06T03:04:41;99581.25;;;9.99;100.00
56912;BME280;42800;53.928;27.662;2022-09-06T03:07:08;99593.22;;;10.06;100.00
56912;BME280;42800;53.928;27.662;2022-09-06T03:09:34;99597.09;;;10.05;100.00
56912;BME280;42800;53.928;27.662;2022-09-06T03:12:01;99602.84;;;10.00;100.00
56912;BME280;42800;53.928;27.662;2022-09-06T03:14:27;99615.00;;;10.03;100.00
56912;BME280;42800;53.928;27.662;2022-09-06T03:16:54;99595.03;;;10.02;100.00
56912;BME280;42800;53.928;27.662;2022-09-06T03:19:20;99574.28;;;10.01;100.00
56912;BME280;42800;53.928;27.662;2022-09-06T03:21:47;99609.00;;;9.97;100.00
56912;BME280;42800;53.928;27.662;2022-09-06T03:24:13;99637.09;;;9.94;100.00
56912;BME280;42800;53.928;27.662;2022-09-06T03:26:40;99653.16;;;9.96;100.00
56912;BME280;42800;53.928;27.662;2022-09-06T03:29:06;99652.47;;;9.99;100.00
56912;BME280;42800;53.928;27.662;2022-09-06T03:31:32;99644.09;;;10.07;100.00
56912;BME280;42800;53.928;27.662;2022-09-06T03:33:58;99631.28;;;10.11;100.00
56912;BME280;42800;53.928;27.662;2022-09-06T03:36:25;99613.38;;;10.14;100.00
56912;BME280;42800;53.928;27.662;2022-09-06T03:38:52;99646.56;;;9.97;100.00
56912;BME280;42800;53.928;27.662;2022-09-06T03:41:18;99677.13;;;9.99;100.00
56912;BME280;42800;53.928;27.662;2022-09-06T03:43:45;99705.88;;;9.93;100.00
56912;BME280;42800;53.928;27.662;2022-09-06T03:46:11;99714.78;;;10.02;100.00
56912;BME280;42800;53.928;27.662;2022-09-06T03:48:37;99717.78;;;9.84;100.00
56912;BME280;42800;53.928;27.662;2022-09-06T03:51:04;99759.88;;;9.92;100.00
56912;BME280;42800;53.928;27.662;2022-09-06T03:53:30;99748.00;;;10.00;100.00
56912;BME280;42800;53.928;27.662;2022-09-06T03:55:57;99747.63;;;10.02;100.00
56912;BME280;42800;53.928;27.662;2022-09-06T03:58:28;99728.22;;;10.07;100.00
56912;BME280;42800;53.928;27.662;2022-09-06T04:01:05;99738.63;;;10.01;100.00
56912;BME280;42800;53.928;27.662;2022-09-06T04:03:32;99727.97;;;10.12;100.00
56912;BME280;42800;53.928;27.662;2022-09-06T04:05:59;99712.00;;;10.14;100.00
56912;BME280;42800;53.928;27.662;2022-09-06T04:08:26;99705.19;;;9.96;100.00
56912;BME280;42800;53.928;27.662;2022-09-06T04:10:53;99707.66;;;10.13;100.00
56912;BME280;42800;53.928;27.662;2022-09-06T04:13:20;99693.41;;;10.07;100.00
56912;BME280;42800;53.928;27.662;2022-09-06T04:15:47;99697.03;;;10.11;100.00
56912;BME280;42800;53.928;27.662;2022-09-06T04:18:15;99693.97;;;10.13;100.00
56912;BME280;42800;53.928;27.662;2022-09-06T04:20:41;99690.97;;;10.18;100.00
56912;BME280;42800;53.928;27.662;2022-09-06T04:23:08;99673.03;;;10.21;100.00
56912;BME280;42800;53.928;27.662;2022-09-06T04:25:34;99676.09;;;10.31;100.00
56912;BME280;42800;53.928;27.662;2022-09-06T04:28:01;99641.16;;;10.28;100.00
56912;BME280;42800;53.928;27.662;2022-09-06T04:30:28;99616.50;;;10.28;100.00
56912;BME280;42800;53.928;27.662;2022-09-06T04:32:54;99611.66;;;10.38;100.00
56912;BME280;42800;53.928;27.662;2022-09-06T04:35:20;99591.94;;;10.48;100.00
56912;BME280;42800;53.928;27.662;2022-09-06T04:37:47;99576.38;;;10.52;100.00
56912;BME280;42800;53.928;27.662;2022-09-06T04:40:13;99554.03;;;10.50;100.00
56912;BME280;42800;53.928;27.662;2022-09-06T04:42:39;99585.03;;;10.38;100.00
56912;BME280;42800;53.928;27.662;2022-09-06T04:45:07;99579.56;;;10.54;100.00
56912;BME280;42800;53.928;27.662;2022-09-06T04:47:34;99572.06;;;10.67;100.00
56912;BME280;42800;53.928;27.662;2022-09-06T04:50:00;99560.78;;;10.72;100.00
56912;BME280;42800;53.928;27.662;2022-09-06T04:52:26;99523.81;;;10.66;100.00
56912;BME280;42800;53.928;27.662;2022-09-06T04:54:53;99511.09;;;10.73;100.00
56912;BME280;42800;53.928;27.662;2022-09-06T04:57:19;99457.25;;;10.84;100.00
56912;BME280;42800;53.928;27.662;2022-09-06T04:59:45;99445.38;;;10.96;100.00
56912;BME280;42800;53.928;27.662;2022-09-06T05:02:11;99422.63;;;10.96;100.00
56912;BME280;42800;53.928;27.662;2022-09-06T05:04:38;99384.19;;;11.15;100.00
56912;BME280;42800;53.928;27.662;2022-09-06T05:07:07;99360.97;;;11.32;100.00
56912;BME280;42800;53.928;27.662;2022-09-06T05:09:34;99361.25;;;11.04;100.00
56912;BME280;42800;53.928;27.662;2022-09-06T05:12:01;99314.44;;;11.39;100.00
56912;BME280;42800;53.928;27.662;2022-09-06T05:14:28;99257.41;;;11.52;100.00
56912;BME280;42800;53.928;27.662;2022-09-06T05:16:54;99263.09;;;11.40;100.00
56912;BME280;42800;53.928;27.662;2022-09-06T05:19:21;99235.94;;;11.35;100.00
56912;BME280;42800;53.928;27.662;2022-09-06T05:21:49;99266.94;;;11.35;100.00
56912;BME280;42800;53.928;27.662;2022-09-06T05:24:15;99240.72;;;11.64;100.00
56912;BME280;42800;53.928;27.662;2022-09-06T05:26:42;99232.16;;;11.69;100.00
56912;BME280;42800;53.928;27.662;2022-09-06T05:29:08;99205.03;;;11.64;100.00
56912;BME280;42800;53.928;27.662;2022-09-06T05:31:34;99215.66;;;11.69;100.00
56912;BME280;42800;53.928;27.662;2022-09-06T05:34:01;99193.34;;;11.71;100.00
56912;BME280;42800;53.928;27.662;2022-09-06T05:36:28;99167.59;;;11.83;100.00
56912;BME280;42800;53.928;27.662;2022-09-06T05:38:56;99151.66;;;11.92;100.00
56912;BME280;42800;53.928;27.662;2022-09-06T05:41:23;99141.25;;;11.78;100.00
56912;BME280;42800;53.928;27.662;2022-09-06T05:43:50;99128.94;;;11.95;100.00
56912;BME280;42800;53.928;27.662;2022-09-06T05:46:16;99142.59;;;11.88;100.00
56912;BME280;42800;53.928;27.662;2022-09-06T05:48:43;99155.69;;;11.71;100.00
56912;BME280;42800;53.928;27.662;2022-09-06T05:51:11;99140.50;;;11.81;100.00
56912;BME280;42800;53.928;27.662;2022-09-06T05:53:39;99126.72;;;11.77;100.00
56912;BME280;42800;53.928;27.662;2022-09-06T05:56:06;99124.13;;;11.88;100.00
56912;BME280;42800;53.928;27.662;2022-09-06T05:58:33;99124.53;;;11.87;100.00
56912;BME280;42800;53.928;27.662;2022-09-06T06:01:07;99125.25;;;11.84;100.00
56912;BME280;42800;53.928;27.662;2022-09-06T06:03:38;99122.06;;;11.82;100.00
56912;BME280;42800;53.928;27.662;2022-09-06T06:06:05;99115.97;;;11.95;100.00
56912;BME280;42800;53.928;27.662;2022-09-06T06:08:31;99129.28;;;11.90;100.00
56912;BME280;42800;53.928;27.662;2022-09-06T06:10:58;99135.72;;;11.74;100.00
56912;BME280;42800;53.928;27.662;2022-09-06T06:13:27;99149.66;;;11.89;100.00
56912;BME280;42800;53.928;27.662;2022-09-06T06:15:54;99167.31;;;11.88;100.00
56912;BME280;42800;53.928;27.662;2022-09-06T06:18:20;99174.25;;;11.82;100.00
56912;BME280;42800;53.928;27.662;2022-09-06T06:20:46;99183.63;;;11.77;100.00
56912;BME280;42800;53.928;27.662;2022-09-06T06:23:13;99169.66;;;11.89;100.00
56912;BME280;42800;53.928;27.662;2022-09-06T06:25:39;99153.06;;;12.12;100.00
56912;BME280;42800;53.928;27.662;2022-09-06T06:28:05;99135.94;;;12.26;100.00
56912;BME280;42800;53.928;27.662;2022-09-06T06:30:32;99112.06;;;12.34;100.00
56912;BME280;42800;53.928;27.662;2022-09-06T06:32:59;99104.72;;;12.45;100.00
56912;BME280;42800;53.928;27.662;2022-09-06T06:35:26;99105.22;;;12.58;100.00
56912;BME280;42800;53.928;27.662;2022-09-06T06:37:52;99097.88;;;12.72;100.00
56912;BME280;42800;53.928;27.662;2022-09-06T06:40:19;99095.63;;;12.85;100.00
56912;BME280;42800;53.928;27.662;2022-09-06T06:42:45;99106.22;;;12.80;100.00
56912;BME280;42800;53.928;27.662;2022-09-06T06:45:11;99113.34;;;12.91;100.00
56912;BME280;42800;53.928;27.662;2022-09-06T06:47:38;99127.72;;;13.22;100.00
56912;BME280;42800;53.928;27.662;2022-09-06T06:50:05;99121.66;;;13.57;100.00
56912;BME280;42800;53.928;27.662;2022-09-06T06:52:32;99141.03;;;13.75;100.00
56912;BME280;42800;53.928;27.662;2022-09-06T06:54:58;99152.50;;;13.88;100.00
56912;BME280;42800;53.928;27.662;2022-09-06T06:57:24;99157.34;;;14.16;100.00
56912;BME280;42800;53.928;27.662;2022-09-06T06:59:51;99181.41;;;14.30;100.00
56912;BME280;42800;53.928;27.662;2022-09-06T07:02:17;99179.38;;;14.12;100.00
56912;BME280;42800;53.928;27.662;2022-09-06T07:04:44;99184.59;;;14.43;100.00
56912;BME280;42800;53.928;27.662;2022-09-06T07:07:10;99207.75;;;14.17;100.00
56912;BME280;42800;53.928;27.662;2022-09-06T07:09:36;99226.69;;;14.29;100.00
56912;BME280;42800;53.928;27.662;2022-09-06T07:12:03;99222.41;;;14.42;100.00
56912;BME280;42800;53.928;27.662;2022-09-06T07:14:30;99238.28;;;14.63;100.00
56912;BME280;42800;53.928;27.662;2022-09-06T07:16:56;99262.38;;;14.91;100.00
56912;BME280;42800;53.928;27.662;2022-09-06T07:19:24;99276.97;;;14.88;100.00
56912;BME280;42800;53.928;27.662;2022-09-06T07:21:51;99394.84;;;14.80;100.00
56912;BME280;42800;53.928;27.662;2022-09-06T07:24:17;99459.13;;;14.81;100.00
56912;BME280;42800;53.928;27.662;2022-09-06T07:26:43;99446.53;;;14.32;100.00
56912;BME280;42800;53.928;27.662;2022-09-06T07:29:10;99477.34;;;14.41;100.00
56912;BME280;42800;53.928;27.662;2022-09-06T07:31:37;99485.88;;;14.70;100.00
56912;BME280;42800;53.928;27.662;2022-09-06T07:34:03;99520.28;;;14.90;100.00
56912;BME280;42800;53.928;27.662;2022-09-06T07:36:30;99562.34;;;15.39;100.00
56912;BME280;42800;53.928;27.662;2022-09-06T07:38:57;99629.53;;;15.53;100.00
56912;BME280;42800;53.928;27.662;2022-09-06T07:41:23;99650.50;;;15.65;100.00
56912;BME280;42800;53.928;27.662;2022-09-06T07:43:52;99706.72;;;15.84;100.00
56912;BME280;42800;53.928;27.662;2022-09-06T07:46:19;99735.00;;;15.63;100.00
56912;BME280;42800;53.928;27.662;2022-09-06T07:48:46;99713.34;;;15.72;100.00
56912;BME280;42800;53.928;27.662;2022-09-06T07:51:15;99726.41;;;16.73;100.00
56912;BME280;42800;53.928;27.662;2022-09-06T07:53:43;99741.09;;;16.95;99.76
56912;BME280;42800;53.928;27.662;2022-09-06T07:56:13;99743.84;;;16.81;98.73
56912;BME280;42800;53.928;27.662;2022-09-06T07:58:39;99720.16;;;17.26;100.00
56912;BME280;42800;53.928;27.662;2022-09-06T08:01:33;99762.50;;;17.37;86.46
56912;BME280;42800;53.928;27.662;2022-09-06T08:04:00;99767.25;;;17.30;84.48
56912;BME280;42800;53.928;27.662;2022-09-06T08:06:28;99776.28;;;18.05;80.92
56912;BME280;42800;53.928;27.662;2022-09-06T08:08:55;99773.59;;;19.38;77.33
56912;BME280;42800;53.928;27.662;2022-09-06T08:11:24;99776.50;;;19.72;76.32
56912;BME280;42800;53.928;27.662;2022-09-06T08:13:51;99776.00;;;18.80;78.34
56912;BME280;42800;53.928;27.662;2022-09-06T08:16:20;99775.16;;;17.13;77.86
56912;BME280;42800;53.928;27.662;2022-09-06T08:18:49;99771.19;;;15.98;84.33
56912;BME280;42800;53.928;27.662;2022-09-06T08:21:16;99755.38;;;14.96;87.57
56912;BME280;42800;53.928;27.662;2022-09-06T08:23:45;99757.59;;;14.79;90.02
56912;BME280;42800;53.928;27.662;2022-09-06T08:26:12;99764.84;;;14.27;92.45
56912;BME280;42800;53.928;27.662;2022-09-06T08:28:39;99762.69;;;14.44;91.48
56912;BME280;42800;53.928;27.662;2022-09-06T08:31:07;99756.75;;;14.75;91.54
56912;BME280;42800;53.928;27.662;2022-09-06T08:33:33;99757.13;;;14.40;91.60
56912;BME280;42800;53.928;27.662;2022-09-06T08:36:00;99757.97;;;14.44;95.65
56912;BME280;42800;53.928;27.662;2022-09-06T08:38:28;99759.94;;;14.13;94.44
56912;BME280;42800;53.928;27.662;2022-09-06T08:41:05;99745.56;;;13.97;94.57
56912;BME280;42800;53.928;27.662;2022-09-06T08:43:32;99737.75;;;14.33;95.91
56912;BME280;42800;53.928;27.662;2022-09-06T08:46:00;99742.00;;;13.97;100.00
56912;BME280;42800;53.928;27.662;2022-09-06T08:48:29;99730.38;;;15.26;96.32
56912;BME280;42800;53.928;27.662;2022-09-06T08:51:06;99732.59;;;16.27;89.05
56912;BME280;42800;53.928;27.662;2022-09-06T08:53:41;99738.50;;;16.29;88.39
56912;BME280;42800;53.928;27.662;2022-09-06T08:56:13;99740.22;;;16.66;88.32
56912;BME280;42800;53.928;27.662;2022-09-06T08:58:57;99740.28;;;15.82;88.54
56912;BME280;42800;53.928;27.662;2022-09-06T09:01:29;99718.66;;;15.36;96.66
56912;BME280;42800;53.928;27.662;2022-09-06T09:03:58;99717.91;;;16.16;93.23
56912;BME280;42800;53.928;27.662;2022-09-06T09:06:30;99710.25;;;15.77;96.39
56912;BME280;42800;53.928;27.662;2022-09-06T09:09:00;99708.69;;;15.83;96.23
56912;BME280;42800;53.928;27.662;2022-09-06T09:11:29;99717.28;;;16.73;91.91
56912;BME280;42800;53.928;27.662;2022-09-06T09:14:02;99712.81;;;16.25;89.96
56912;BME280;42800;53.928;27.662;2022-09-06T09:16:30;99727.97;;;16.60;88.16
56912;BME280;42800;53.928;27.662;2022-09-06T09:18:59;99718.44;;;16.46;88.00
56912;BME280;42800;53.928;27.662;2022-09-06T09:21:26;99712.81;;;16.21;91.10
56912;BME280;42800;53.928;27.662;2022-09-06T09:23:54;99711.66;;;16.30;91.61
56912;BME280;42800;53.928;27.662;2022-09-06T09:26:23;99707.88;;;15.83;94.18
56912;BME280;42800;53.928;27.662;2022-09-06T09:29:09;99690.47;;;15.16;100.00
56912;BME280;42800;53.928;27.662;2022-09-06T09:31:38;99693.34;;;15.34;100.00
56912;BME280;42800;53.928;27.662;2022-09-06T09:34:05;99678.91;;;15.00;100.00
56912;BME280;42800;53.928;27.662;2022-09-06T09:36:35;99677.56;;;14.79;100.00
56912;BME280;42800;53.928;27.662;2022-09-06T09:39:08;99675.47;;;15.14;100.00
56912;BME280;42800;53.928;27.662;2022-09-06T09:41:37;99670.28;;;15.09;100.00
56912;BME280;42800;53.928;27.662;2022-09-06T09:44:06;99662.22;;;14.89;100.00
56912;BME280;42800;53.928;27.662;2022-09-06T09:46:35;99665.81;;;14.90;100.00
56912;BME280;42800;53.928;27.662;2022-09-06T09:49:06;99651.72;;;15.05;100.00
56912;BME280;42800;53.928;27.662;2022-09-06T09:51:34;99667.56;;;15.71;100.00
56912;BME280;42800;53.928;27.662;2022-09-06T09:54:03;99661.63;;;15.10;100.00
56912;BME280;42800;53.928;27.662;2022-09-06T09:56:37;99661.97;;;15.05;100.00
56912;BME280;42800;53.928;27.662;2022-09-06T09:59:14;99680.50;;;15.56;100.00
56912;BME280;42800;53.928;27.662;2022-09-06T10:01:41;99697.28;;;15.95;99.97
56912;BME280;42800;53.928;27.662;2022-09-06T10:04:10;99695.97;;;15.71;97.75
56912;BME280;42800;53.928;27.662;2022-09-06T10:06:37;99707.94;;;15.86;92.36
56912;BME280;42800;53.928;27.662;2022-09-06T10:09:18;99704.53;;;16.25;90.95
56912;BME280;42800;53.928;27.662;2022-09-06T10:11:53;99702.72;;;16.86;87.59
56912;BME280;42800;53.928;27.662;2022-09-06T10:14:31;99690.53;;;15.86;94.53
56912;BME280;42800;53.928;27.662;2022-09-06T10:16:58;99680.09;;;15.61;100.00
56912;BME280;42800;53.928;27.662;2022-09-06T10:19:39;99682.69;;;15.98;98.72
56912;BME280;42800;53.928;27.662;2022-09-06T10:22:22;99671.00;;;15.53;98.86
56912;BME280;42800;53.928;27.662;2022-09-06T10:25:10;99674.16;;;14.97;100.00
56912;BME280;42800;53.928;27.662;2022-09-06T10:27:49;99660.38;;;15.63;100.00
56912;BME280;42800;53.928;27.662;2022-09-06T10:30:19;99669.59;;;15.88;100.00
56912;BME280;42800;53.928;27.662;2022-09-06T10:32:48;99675.59;;;16.05;99.50
56912;BME280;42800;53.928;27.662;2022-09-06T10:35:22;99676.00;;;15.34;100.00
56912;BME280;42800;53.928;27.662;2022-09-06T10:38:01;99681.25;;;16.37;92.94
56912;BME280;42800;53.928;27.662;2022-09-06T10:40:33;99686.50;;;16.88;89.37
56912;BME280;42800;53.928;27.662;2022-09-06T10:43:05;99697.59;;;17.10;85.05
56912;BME280;42800;53.928;27.662;2022-09-06T10:45:43;99705.84;;;17.63;83.88
56912;BME280;42800;53.928;27.662;2022-09-06T10:48:15;99689.63;;;17.48;88.48
56912;BME280;42800;53.928;27.662;2022-09-06T10:50:48;99682.94;;;16.91;93.93
56912;BME280;42800;53.928;27.662;2022-09-06T10:53:31;99668.69;;;16.82;96.35
56912;BME280;42800;53.928;27.662;2022-09-06T10:56:05;99668.97;;;16.27;100.00
56912;BME280;42800;53.928;27.662;2022-09-06T10:58:44;99666.19;;;16.27;98.23
56912;BME280;42800;53.928;27.662;2022-09-06T11:01:20;99664.06;;;15.88;100.00
56912;BME280;42800;53.928;27.662;2022-09-06T11:03:49;99653.72;;;15.09;100.00
56912;BME280;42800;53.928;27.662;2022-09-06T11:06:19;99662.47;;;15.18;100.00
56912;BME280;42800;53.928;27.662;2022-09-06T11:08:53;99645.63;;;14.86;100.00
56912;BME280;42800;53.928;27.662;2022-09-06T11:11:26;99644.56;;;14.97;100.00
56912;BME280;42800;53.928;27.662;2022-09-06T11:13:55;99659.41;;;15.30;100.00
56912;BME280;42800;53.928;27.662;2022-09-06T11:16:23;99652.16;;;14.63;100.00
56912;BME280;42800;53.928;27.662;2022-09-06T11:18:54;99646.47;;;14.49;100.00
56912;BME280;42800;53.928;27.662;2022-09-06T11:21:48;99633.97;;;14.58;100.00
56912;BME280;42800;53.928;27.662;2022-09-06T11:24:32;99638.53;;;14.81;100.00
56912;BME280;42800;53.928;27.662;2022-09-06T11:27:04;99649.94;;;14.42;100.00
56912;BME280;42800;53.928;27.662;2022-09-06T11:29:38;99642.69;;;14.23;100.00
56912;BME280;42800;53.928;27.662;2022-09-06T11:32:28;99648.91;;;14.54;100.00
56912;BME280;42800;53.928;27.662;2022-09-06T11:34:58;99651.19;;;14.89;100.00
56912;BME280;42800;53.928;27.662;2022-09-06T11:37:30;99660.03;;;15.13;100.00
56912;BME280;42800;53.928;27.662;2022-09-06T11:40:11;99659.28;;;15.16;100.00
56912;BME280;42800;53.928;27.662;2022-09-06T11:42:41;99666.13;;;14.81;98.84
56912;BME280;42800;53.928;27.662;2022-09-06T11:45:47;99641.00;;;14.97;100.00
56912;BME280;42800;53.928;27.662;2022-09-06T11:51:35;99643.31;;;15.43;100.00
56912;BME280;42800;53.928;27.662;2022-09-06T11:54:17;99640.38;;;15.84;99.82
56912;BME280;42800;53.928;27.662;2022-09-06T11:56:52;99639.56;;;15.80;100.00
56912;BME280;42800;53.928;27.662;2022-09-06T11:59:29;99632.69;;;15.56;98.97
56912;BME280;42800;53.928;27.662;2022-09-06T12:01:59;99629.38;;;16.05;100.00
56912;BME280;42800;53.928;27.662;2022-09-06T12:07:28;99636.06;;;15.93;96.88
56912;BME280;42800;53.928;27.662;2022-09-06T12:09:55;99632.22;;;16.34;97.71
56912;BME280;42800;53.928;27.662;2022-09-06T12:12:37;99625.47;;;16.20;91.28
56912;BME280;42800;53.928;27.662;2022-09-06T12:15:24;99633.03;;;16.56;90.50
56912;BME280;42800;53.928;27.662;2022-09-06T12:17:51;99637.41;;;16.50;86.39
56912;BME280;42800;53.928;27.662;2022-09-06T12:23:40;99634.59;;;16.32;88.02
56912;BME280;42800;53.928;27.662;2022-09-06T12:26:07;99634.84;;;15.84;88.09
56912;BME280;42800;53.928;27.662;2022-09-06T12:28:39;99639.75;;;16.33;84.67
56912;BME280;42800;53.928;27.662;2022-09-06T12:31:24;99633.34;;;16.04;86.88
56912;BME280;42800;53.928;27.662;2022-09-06T12:33:55;99631.28;;;15.80;86.74
56912;BME280;42800;53.928;27.662;2022-09-06T12:36:23;99636.44;;;15.95;86.99
56912;BME280;42800;53.928;27.662;2022-09-06T12:38:55;99617.28;;;15.51;91.14
56912;BME280;42800;53.928;27.662;2022-09-06T12:41:23;99606.38;;;15.06;94.54
56912;BME280;42800;53.928;27.662;2022-09-06T12:43:51;99597.16;;;15.50;93.99
56912;BME280;42800;53.928;27.662;2022-09-06T12:46:17;99605.59;;;15.83;91.31
56912;BME280;42800;53.928;27.662;2022-09-06T12:48:58;99604.50;;;16.09;90.94
56912;BME280;42800;53.928;27.662;2022-09-06T12:51:25;99612.03;;;16.19;86.47
56912;BME280;42800;53.928;27.662;2022-09-06T12:53:51;99601.38;;;16.24;87.71
56912;BME280;42800;53.928;27.662;2022-09-06T12:56:19;99595.38;;;15.90;88.79
56912;BME280;42800;53.928;27.662;2022-09-06T12:58:46;99597.81;;;16.24;90.44
56912;BME280;42800;53.928;27.662;2022-09-06T13:01:15;99587.53;;;16.32;91.65
56912;BME280;42800;53.928;27.662;2022-09-06T13:03:46;99579.59;;;16.05;94.88
56912;BME280;42800;53.928;27.662;2022-09-06T13:06:18;99585.13;;;16.12;92.81
56912;BME280;42800;53.928;27.662;2022-09-06T13:08:47;99587.13;;;16.08;93.47
56912;BME280;42800;53.928;27.662;2022-09-06T13:11:19;99582.00;;;16.17;93.92